Time;durP1;ratioP1;P1;durP2;ratioP2;P2;SDS_P1;SDS_P2;PMS_P1;PMS_P2;Temp;Humidity;BMP_temperature;BMP_pressure;BME280_temperature;BME280_humidity;BME280_pressure;Samples;Min_cycle;Max_cycle;Signal;HPM_P1;HPM_P2
2023/11/11 00:00:06;;;;;;;5.13;2.35;;;;;;;;;;701683;28;1202;-69
2023/11/11 00:00:29;;;;;;;4.97;2.22;;;;;;;;;;702329;28;1192;-69
2023/11/11 00:00:50;;;;;;;5.18;2.33;;;;;;;;;;702902;28;946;-68
2023/11/11 00:01:10;;;;;;;5.25;2.28;;;;;;;;;;700200;28;4441;-70
2023/11/11 00:01:31;;;;;;;4.87;2.13;;;;;;;;;;703353;28;1257;-68
2023/11/11 00:01:51;;;;;;;5.03;2.30;;;;;;;;;;705177;27;1053;-68
2023/11/11 00:02:12;;;;;;;4.87;2.20;;;;;;;;;;700412;28;1714;-66
2023/11/11 00:02:32;;;;;;;5.22;2.17;;;;;;;;;;702016;28;1348;-69
2023/11/11 00:02:53;;;;;;;5.15;2.42;;;;;;;;;;701401;28;958;-66
2023/11/11 00:03:14;;;;;;;4.63;2.40;;;;;;;;;;699908;28;1087;-69
2023/11/11 00:03:34;;;;;;;4.80;2.40;;;;;;;;;;702627;28;1026;-68
2023/11/11 00:03:55;;;;;;;5.20;2.35;;;;;;;;;;702148;28;1094;-69
2023/11/11 00:04:15;;;;;;;5.40;2.60;;;;;;;;;;700663;28;4412;-69
2023/11/11 00:04:36;;;;;;;5.30;2.60;;;;;;;;;;701738;28;967;-68
2023/11/11 00:04:57;;;;;;;6.00;2.58;;;;;;;;;;702918;28;1237;-68
2023/11/11 00:05:18;;;;;;;6.45;2.78;;;;;;;;;;698981;28;1740;-68
2023/11/11 00:05:38;;;;;;;5.50;2.67;;;;;;;;;;699989;28;1111;-68
2023/11/11 00:05:59;;;;;;;5.72;2.63;;;;;;;;;;698643;28;977;-70
2023/11/11 00:06:20;;;;;;;5.82;2.50;;;;;;;;;;700519;28;1067;-68
2023/11/11 00:06:41;;;;;;;5.18;2.50;;;;;;;;;;701800;28;1410;-69
2023/11/11 00:07:01;;;;;;;5.22;2.88;;;;;;;;;;700947;28;1793;-68
2023/11/11 00:07:23;;;;;;;5.70;2.97;;;;;;;;;;703817;27;4184;-71
2023/11/11 00:07:46;;;;;;;6.28;2.80;;;;;;;;;;704681;27;960;-69
2023/11/11 00:08:07;;;;;;;5.72;2.90;;;;;;;;;;703917;28;1124;-70
2023/11/11 00:08:29;;;;;;;4.55;2.50;;;;;;;;;;704012;27;1032;-70
2023/11/11 00:08:50;;;;;;;5.57;2.67;;;;;;;;;;705064;27;1045;-69
2023/11/11 00:09:10;;;;;;;5.40;2.80;;;;;;;;;;703908;27;2187;-70
2023/11/11 00:09:31;;;;;;;5.65;2.97;;;;;;;;;;705931;28;1002;-69
2023/11/11 00:09:53;;;;;;;5.22;2.70;;;;;;;;;;702082;28;2714;-69
2023/11/11 00:10:13;;;;;;;6.05;2.80;;;;;;;;;;700160;28;4260;-70
2023/11/11 00:10:33;;;;;;;6.73;2.73;;;;;;;;;;701491;28;1310;-69
2023/11/11 00:10:54;;;;;;;6.97;2.90;;;;;;;;;;701845;28;1193;-69
2023/11/11 00:11:14;;;;;;;5.67;2.80;;;;;;;;;;698814;28;1081;-69
2023/11/11 00:11:35;;;;;;;5.25;2.67;;;;;;;;;;699810;28;1347;-69
2023/11/11 00:11:58;;;;;;;5.73;3.00;;;;;;;;;;697337;28;1196;-70
2023/11/11 00:12:19;;;;;;;6.18;3.08;;;;;;;;;;696891;28;1745;-69
2023/11/11 00:12:39;;;;;;;6.17;3.00;;;;;;;;;;697018;28;1157;-69
2023/11/11 00:13:00;;;;;;;5.93;2.78;;;;;;;;;;697248;28;1193;-70
2023/11/11 00:13:20;;;;;;;6.47;2.75;;;;;;;;;;699889;28;4238;-69
2023/11/11 00:13:40;;;;;;;8.30;3.00;;;;;;;;;;699537;28;1222;-70
2023/11/11 00:14:01;;;;;;;6.40;3.00;;;;;;;;;;701619;28;1619;-71
2023/11/11 00:14:21;;;;;;;5.95;2.90;;;;;;;;;;702446;28;1198;-70
2023/11/11 00:14:41;;;;;;;5.90;2.90;;;;;;;;;;704270;28;1271;-69
2023/11/11 00:15:02;;;;;;;5.70;2.90;;;;;;;;;;703742;28;2250;-70
2023/11/11 00:15:22;;;;;;;5.60;3.00;;;;;;;;;;704827;27;978;-69
2023/11/11 00:15:43;;;;;;;5.80;3.10;;;;;;;;;;703545;28;1302;-70
2023/11/11 00:16:03;;;;;;;5.80;3.20;;;;;;;;;;703261;28;4258;-70
2023/11/11 00:16:24;;;;;;;6.30;3.33;;;;;;;;;;704086;28;1320;-70
2023/11/11 00:16:44;;;;;;;5.80;3.10;;;;;;;;;;704838;27;1232;-69
2023/11/11 00:17:05;;;;;;;5.55;2.88;;;;;;;;;;701399;28;2322;-70
2023/11/11 00:17:26;;;;;;;5.32;2.80;;;;;;;;;;701845;28;1211;-70
2023/11/11 00:17:46;;;;;;;5.90;2.90;;;;;;;;;;701739;28;1005;-69
2023/11/11 00:18:07;;;;;;;6.93;3.10;;;;;;;;;;701495;28;1061;-69
2023/11/11 00:18:27;;;;;;;6.07;3.00;;;;;;;;;;703104;28;1055;-70
2023/11/11 00:18:48;;;;;;;5.97;2.80;;;;;;;;;;702064;28;1205;-69
2023/11/11 00:19:11;;;;;;;6.35;3.30;;;;;;;;;;702760;28;4457;-70
2023/11/11 00:19:32;;;;;;;7.35;3.50;;;;;;;;;;703756;28;1068;-70
2023/11/11 00:19:53;;;;;;;6.04;2.90;;;;;;;;;;705349;27;1123;-70
2023/11/11 00:20:13;;;;;;;5.93;3.00;;;;;;;;;;701425;28;2400;-70
2023/11/11 00:20:34;;;;;;;6.28;3.00;;;;;;;;;;701287;28;1200;-70
2023/11/11 00:20:56;;;;;;;6.00;3.00;;;;;;;;;;699478;28;1392;-70
2023/11/11 00:21:17;;;;;;;6.50;3.15;;;;;;;;;;698551;28;1767;-70
2023/11/11 00:21:39;;;;;;;6.63;3.15;;;;;;;;;;700351;28;1113;-70
2023/11/11 00:21:59;;;;;;;6.57;2.90;;;;;;;;;;696939;28;1640;-71
2023/11/11 00:22:20;;;;;;;6.07;3.27;;;;;;;;;;698914;28;4382;-70
2023/11/11 00:22:44;;;;;;;6.80;3.30;;;;;;;;;;702345;28;1391;-71
2023/11/11 00:23:05;;;;;;;6.97;3.33;;;;;;;;;;701131;28;1060;-70
2023/11/11 00:23:25;;;;;;;6.75;3.30;;;;;;;;;;699245;28;3503;-70
2023/11/11 00:23:46;;;;;;;6.78;3.30;;;;;;;;;;698339;28;1191;-70
2023/11/11 00:24:08;;;;;;;6.32;3.10;;;;;;;;;;698592;28;1618;-70
2023/11/11 00:24:29;;;;;;;6.65;3.00;;;;;;;;;;697093;28;1073;-70
2023/11/11 00:24:49;;;;;;;6.45;3.10;;;;;;;;;;693916;28;1027;-70
2023/11/11 00:25:11;;;;;;;5.97;3.17;;;;;;;;;;692985;28;4936;-70
2023/11/11 00:25:31;;;;;;;6.53;3.70;;;;;;;;;;700633;28;974;-70
2023/11/11 00:25:52;;;;;;;6.83;3.53;;;;;;;;;;696626;28;1258;-70
2023/11/11 00:26:12;;;;;;;6.50;3.43;;;;;;;;;;696516;28;2389;-71
2023/11/11 00:26:33;;;;;;;6.25;3.42;;;;;;;;;;695625;28;1244;-70
2023/11/11 00:26:55;;;;;;;6.30;3.30;;;;;;;;;;697048;28;1664;-71
2023/11/11 00:27:16;;;;;;;6.45;3.30;;;;;;;;;;698497;28;1967;-71
2023/11/11 00:27:36;;;;;;;7.38;3.47;;;;;;;;;;700389;28;1620;-71
2023/11/11 00:27:56;;;;;;;7.15;3.45;;;;;;;;;;700221;28;1350;-70
2023/11/11 00:28:17;;;;;;;5.73;3.23;;;;;;;;;;695975;28;4423;-70
2023/11/11 00:28:40;;;;;;;5.77;3.40;;;;;;;;;;697824;28;1179;-70
2023/11/11 00:29:03;;;;;;;7.03;3.80;;;;;;;;;;697092;28;2150;-69
2023/11/11 00:29:23;;;;;;;7.50;3.60;;;;;;;;;;699455;28;1099;-69
2023/11/11 00:29:44;;;;;;;6.43;3.30;;;;;;;;;;696766;28;1183;-70
2023/11/11 00:30:05;;;;;;;6.20;3.57;;;;;;;;;;696162;28;1229;-70
2023/11/11 00:30:26;;;;;;;6.50;3.60;;;;;;;;;;697080;28;1968;-70
2023/11/11 00:30:46;;;;;;;6.30;3.43;;;;;;;;;;696583;28;1098;-71
2023/11/11 00:31:07;;;;;;;6.70;3.60;;;;;;;;;;694611;28;4288;-70
2023/11/11 00:31:28;;;;;;;7.53;3.90;;;;;;;;;;697992;28;1144;-70
2023/11/11 00:31:49;;;;;;;7.30;3.88;;;;;;;;;;697850;28;1163;-69
2023/11/11 00:32:09;;;;;;;6.75;3.55;;;;;;;;;;697151;28;965;-70
2023/11/11 00:32:30;;;;;;;8.03;3.70;;;;;;;;;;699502;28;1194;-69
2023/11/11 00:32:51;;;;;;;6.78;3.55;;;;;;;;;;698610;28;1226;-69
2023/11/11 00:33:11;;;;;;;6.38;3.50;;;;;;;;;;696214;28;2488;-69
2023/11/11 00:33:32;;;;;;;7.50;3.60;;;;;;;;;;694153;28;916;-69
2023/11/11 00:33:54;;;;;;;7.40;3.60;;;;;;;;;;691043;28;1229;-69
2023/11/11 00:34:15;;;;;;;8.32;3.63;;;;;;;;;;691363;28;4456;-69
2023/11/11 00:34:37;;;;;;;6.63;3.45;;;;;;;;;;696248;28;1168;-69
2023/11/11 00:34:57;;;;;;;7.68;3.90;;;;;;;;;;696425;28;1361;-69
2023/11/11 00:35:18;;;;;;;8.57;4.10;;;;;;;;;;697899;28;1785;-70
2023/11/11 00:35:39;;;;;;;6.95;3.70;;;;;;;;;;700983;28;1278;-69
2023/11/11 00:36:04;;;;;;;7.27;4.00;;;;;;;;;;698241;28;1703;-69
2023/11/11 00:36:25;;;;;;;7.18;3.97;;;;;;;;;;701263;28;1353;-69
2023/11/11 00:36:45;;;;;;;6.63;3.72;;;;;;;;;;703807;28;1360;-69
2023/11/11 00:37:06;;;;;;;7.07;3.70;;;;;;;;;;698661;28;4451;-71
2023/11/11 00:37:26;;;;;;;6.75;3.67;;;;;;;;;;697968;28;1362;-69
2023/11/11 00:37:47;;;;;;;6.87;3.93;;;;;;;;;;699447;28;1402;-69
2023/11/11 00:38:10;;;;;;;8.32;4.18;;;;;;;;;;700163;28;1068;-69
2023/11/11 00:38:30;;;;;;;9.70;3.95;;;;;;;;;;699399;28;1214;-69
2023/11/11 00:38:51;;;;;;;8.50;4.00;;;;;;;;;;697636;28;1165;-69
2023/11/11 00:39:12;;;;;;;7.50;4.30;;;;;;;;;;699336;28;1754;-69
2023/11/11 00:39:33;;;;;;;7.07;4.23;;;;;;;;;;696937;28;1325;-69
2023/11/11 00:39:53;;;;;;;7.55;4.13;;;;;;;;;;700864;28;1281;-69
2023/11/11 00:40:14;;;;;;;7.75;4.25;;;;;;;;;;698035;28;4519;-69
2023/11/11 00:40:34;;;;;;;6.60;3.70;;;;;;;;;;703837;28;1339;-69
2023/11/11 00:40:55;;;;;;;7.43;3.90;;;;;;;;;;700927;28;1435;-69
2023/11/11 00:41:15;;;;;;;8.03;3.80;;;;;;;;;;699034;28;2450;-69
2023/11/11 00:41:35;;;;;;;7.47;3.97;;;;;;;;;;698219;28;1444;-69
2023/11/11 00:41:55;;;;;;;7.10;4.13;;;;;;;;;;698476;28;1916;-70
2023/11/11 00:42:16;;;;;;;6.97;4.00;;;;;;;;;;695043;28;5540;-70
2023/11/11 00:42:36;;;;;;;7.17;3.80;;;;;;;;;;694054;28;1176;-69
2023/11/11 00:42:56;;;;;;;8.00;3.83;;;;;;;;;;696284;28;1139;-69
2023/11/11 00:43:16;;;;;;;7.47;3.97;;;;;;;;;;690236;28;5222;-69
2023/11/11 00:43:37;;;;;;;8.37;3.80;;;;;;;;;;695329;28;1223;-68
2023/11/11 00:43:57;;;;;;;8.95;3.90;;;;;;;;;;691941;28;1171;-68
2023/11/11 00:44:19;;;;;;;8.57;4.00;;;;;;;;;;693366;28;1988;-69
2023/11/11 00:44:44;;;;;;;7.85;3.92;;;;;;;;;;698433;28;1290;-69
2023/11/11 00:45:06;;;;;;;8.15;4.05;;;;;;;;;;697565;28;2334;-69
2023/11/11 00:45:26;;;;;;;8.95;4.25;;;;;;;;;;700934;28;1288;-69
2023/11/11 00:45:46;;;;;;;7.85;4.40;;;;;;;;;;701294;28;1368;-70
2023/11/11 00:46:07;;;;;;;7.47;4.07;;;;;;;;;;701014;28;5221;-70
2023/11/11 00:46:29;;;;;;;7.97;4.03;;;;;;;;;;700570;28;1297;-69
2023/11/11 00:46:50;;;;;;;7.80;3.95;;;;;;;;;;701274;28;1254;-68
2023/11/11 00:47:11;;;;;;;7.73;3.97;;;;;;;;;;701380;28;2405;-70
2023/11/11 00:47:32;;;;;;;7.22;4.10;;;;;;;;;;700958;28;1591;-69
2023/11/11 00:47:52;;;;;;;7.43;4.17;;;;;;;;;;701151;28;1238;-69
2023/11/11 00:48:12;;;;;;;8.90;4.50;;;;;;;;;;698029;28;1884;-69
2023/11/11 00:48:33;;;;;;;7.40;4.20;;;;;;;;;;698302;28;1433;-68
2023/11/11 00:48:53;;;;;;;7.57;4.10;;;;;;;;;;696096;28;1436;-68
2023/11/11 00:49:14;;;;;;;7.43;4.03;;;;;;;;;;692501;28;4235;-68
2023/11/11 00:49:34;;;;;;;7.38;4.20;;;;;;;;;;698068;28;1302;-69
2023/11/11 00:49:56;;;;;;;7.70;4.47;;;;;;;;;;698609;28;1513;-68
2023/11/11 00:50:17;;;;;;;8.30;4.50;;;;;;;;;;698591;28;1913;-69
2023/11/11 00:50:37;;;;;;;8.93;4.23;;;;;;;;;;699449;28;1248;-69
2023/11/11 00:51:00;;;;;;;7.68;4.45;;;;;;;;;;698563;28;1483;-70
2023/11/11 00:51:21;;;;;;;7.05;4.43;;;;;;;;;;695208;28;2355;-69
2023/11/11 00:51:41;;;;;;;8.13;4.43;;;;;;;;;;696339;28;1390;-68
2023/11/11 00:52:02;;;;;;;8.07;4.40;;;;;;;;;;696708;28;1459;-68
2023/11/11 00:52:22;;;;;;;8.83;4.40;;;;;;;;;;694509;28;4388;-69
2023/11/11 00:52:43;;;;;;;9.57;4.55;;;;;;;;;;692343;28;1255;-68
2023/11/11 00:53:04;;;;;;;9.50;4.70;;;;;;;;;;692061;28;2345;-69
2023/11/11 00:53:24;;;;;;;8.67;4.60;;;;;;;;;;695992;28;1112;-69
2023/11/11 00:53:44;;;;;;;8.80;4.82;;;;;;;;;;698520;28;765;-68
2023/11/11 00:54:05;;;;;;;10.20;4.83;;;;;;;;;;700035;28;1234;-68
2023/11/11 00:54:26;;;;;;;8.63;4.93;;;;;;;;;;702651;28;1297;-68
2023/11/11 00:54:47;;;;;;;8.73;5.22;;;;;;;;;;696948;28;1353;-69
2023/11/11 00:55:08;;;;;;;9.23;5.15;;;;;;;;;;695723;28;4274;-69
2023/11/11 00:55:29;;;;;;;8.85;5.25;;;;;;;;;;696979;28;1320;-69
2023/11/11 00:55:49;;;;;;;9.23;5.10;;;;;;;;;;696140;28;1214;-69
2023/11/11 00:56:09;;;;;;;10.70;5.53;;;;;;;;;;696215;28;1845;-70
2023/11/11 00:56:30;;;;;;;10.00;5.18;;;;;;;;;;696390;28;1163;-69
2023/11/11 00:56:51;;;;;;;9.10;4.97;;;;;;;;;;701387;28;1242;-70
2023/11/11 00:57:11;;;;;;;8.60;4.90;;;;;;;;;;697786;28;2057;-70
2023/11/11 00:57:32;;;;;;;9.73;5.07;;;;;;;;;;699831;28;1171;-69
2023/11/11 00:57:52;;;;;;;9.30;4.83;;;;;;;;;;700604;28;1173;-69
2023/11/11 00:58:13;;;;;;;8.88;4.80;;;;;;;;;;696101;28;4294;-70
2023/11/11 00:58:34;;;;;;;8.53;5.13;;;;;;;;;;697988;28;1198;-69
2023/11/11 00:58:54;;;;;;;9.80;5.07;;;;;;;;;;695419;28;1262;-69
2023/11/11 00:59:15;;;;;;;10.25;4.97;;;;;;;;;;694716;28;1729;-69
2023/11/11 00:59:36;;;;;;;9.55;4.90;;;;;;;;;;696709;28;1198;-69
2023/11/11 00:59:56;;;;;;;9.47;5.20;;;;;;;;;;694666;28;1176;-69
2023/11/11 01:00:20;;;;;;;10.38;5.07;;;;;;;;;;695732;28;2257;-69
2023/11/11 01:00:42;;;;;;;10.88;5.13;;;;;;;;;;696139;28;1986;-69
2023/11/11 01:01:03;;;;;;;9.48;5.10;;;;;;;;;;697009;28;2603;-69
2023/11/11 01:01:23;;;;;;;8.35;4.93;;;;;;;;;;698001;28;4553;-69
2023/11/11 01:01:44;;;;;;;8.70;5.00;;;;;;;;;;699034;28;1269;-70
2023/11/11 01:02:04;;;;;;;9.13;4.93;;;;;;;;;;699696;28;1533;-70
2023/11/11 01:02:24;;;;;;;7.90;4.50;;;;;;;;;;701366;28;1146;-69
2023/11/11 01:02:45;;;;;;;8.77;4.50;;;;;;;;;;702555;28;1340;-70
2023/11/11 01:03:05;;;;;;;8.25;4.40;;;;;;;;;;701127;28;2312;-69
2023/11/11 01:03:26;;;;;;;9.13;4.85;;;;;;;;;;703734;28;1138;-69
2023/11/11 01:03:46;;;;;;;8.27;4.47;;;;;;;;;;703430;28;1312;-69
2023/11/11 01:04:06;;;;;;;8.77;4.57;;;;;;;;;;702048;28;4246;-69
2023/11/11 01:04:27;;;;;;;9.38;4.85;;;;;;;;;;700881;28;1265;-69
2023/11/11 01:04:47;;;;;;;7.87;4.43;;;;;;;;;;700688;28;1193;-70
2023/11/11 01:05:09;;;;;;;8.07;4.57;;;;;;;;;;699642;28;1275;-69
2023/11/11 01:05:29;;;;;;;8.45;4.47;;;;;;;;;;700872;28;1234;-70
2023/11/11 01:05:50;;;;;;;8.17;4.43;;;;;;;;;;698808;28;1323;-69
2023/11/11 01:06:12;;;;;;;8.73;4.30;;;;;;;;;;697872;28;3206;-69
2023/11/11 01:06:32;;;;;;;8.20;4.45;;;;;;;;;;699656;28;1190;-70
2023/11/11 01:06:53;;;;;;;8.30;4.63;;;;;;;;;;701345;28;1230;-69
2023/11/11 01:07:13;;;;;;;7.45;4.20;;;;;;;;;;694642;28;4283;-69
2023/11/11 01:07:33;;;;;;;7.87;4.07;;;;;;;;;;697817;28;1396;-69
2023/11/11 01:07:53;;;;;;;7.37;4.07;;;;;;;;;;701036;28;1162;-70
2023/11/11 01:08:14;;;;;;;7.13;4.00;;;;;;;;;;698128;28;1897;-70
2023/11/11 01:08:34;;;;;;;7.67;3.73;;;;;;;;;;697975;28;1216;-70
2023/11/11 01:08:55;;;;;;;7.67;4.07;;;;;;;;;;695422;28;1247;-69
2023/11/11 01:09:15;;;;;;;7.78;4.00;;;;;;;;;;696148;28;2325;-69
2023/11/11 01:09:36;;;;;;;7.45;3.95;;;;;;;;;;697884;28;1155;-69
2023/11/11 01:09:57;;;;;;;8.13;4.40;;;;;;;;;;698670;28;1235;-69
2023/11/11 01:10:23;;;;;;;8.50;4.40;;;;;;;;;;699473;28;4470;-69
2023/11/11 01:10:43;;;;;;;7.70;3.90;;;;;;;;;;700436;28;1427;-71
2023/11/11 01:11:03;;;;;;;8.40;4.27;;;;;;;;;;696868;28;2131;-70
2023/11/11 01:11:23;;;;;;;8.55;4.38;;;;;;;;;;696273;28;1297;-69
2023/11/11 01:11:44;;;;;;;11.23;5.07;;;;;;;;;;698155;28;1273;-71
2023/11/11 01:12:04;;;;;;;9.95;4.65;;;;;;;;;;693759;28;2621;-69
2023/11/11 01:12:25;;;;;;;7.57;3.90;;;;;;;;;;695920;28;1242;-69
2023/11/11 01:12:45;;;;;;;7.07;3.87;;;;;;;;;;697839;28;1242;-70
2023/11/11 01:13:06;;;;;;;7.30;3.83;;;;;;;;;;698633;28;4297;-69
2023/11/11 01:13:26;;;;;;;8.23;3.95;;;;;;;;;;703893;28;1372;-68
2023/11/11 01:13:46;;;;;;;8.43;3.87;;;;;;;;;;700478;28;1282;-69
2023/11/11 01:14:07;;;;;;;7.28;3.45;;;;;;;;;;700935;28;2749;-69
2023/11/11 01:14:27;;;;;;;7.53;3.77;;;;;;;;;;704082;28;1040;-70
2023/11/11 01:14:49;;;;;;;7.55;3.78;;;;;;;;;;699504;28;1123;-71
2023/11/11 01:15:11;;;;;;;6.43;3.40;;;;;;;;;;698828;28;2333;-70
2023/11/11 01:15:32;;;;;;;7.15;3.40;;;;;;;;;;696727;28;1353;-69
2023/11/11 01:15:55;;;;;;;6.60;3.60;;;;;;;;;;694460;28;1226;-70
2023/11/11 01:16:16;;;;;;;7.25;3.60;;;;;;;;;;695706;28;4396;-69
2023/11/11 01:16:37;;;;;;;5.97;3.40;;;;;;;;;;696354;28;1532;-69
2023/11/11 01:16:57;;;;;;;6.97;3.57;;;;;;;;;;695175;28;1309;-70
2023/11/11 01:17:18;;;;;;;6.65;3.60;;;;;;;;;;694215;28;1084;-69
2023/11/11 01:17:39;;;;;;;7.60;3.72;;;;;;;;;;699023;28;1159;-68
2023/11/11 01:17:59;;;;;;;7.15;3.70;;;;;;;;;;696557;28;1201;-69
2023/11/11 01:18:20;;;;;;;6.87;3.67;;;;;;;;;;696303;28;2285;-70
2023/11/11 01:18:40;;;;;;;7.10;3.73;;;;;;;;;;698388;28;1282;-70
2023/11/11 01:19:00;;;;;;;7.43;3.90;;;;;;;;;;698699;28;1166;-69
2023/11/11 01:19:21;;;;;;;7.63;4.00;;;;;;;;;;693296;28;4239;-70
2023/11/11 01:19:41;;;;;;;8.60;4.18;;;;;;;;;;694542;28;3467;-69
2023/11/11 01:20:02;;;;;;;7.65;3.72;;;;;;;;;;698039;28;930;-69
2023/11/11 01:20:22;;;;;;;7.00;3.83;;;;;;;;;;696646;28;2243;-69
2023/11/11 01:20:43;;;;;;;6.83;3.97;;;;;;;;;;697479;28;1285;-69
2023/11/11 01:21:04;;;;;;;7.53;4.20;;;;;;;;;;696410;28;2330;-69
2023/11/11 01:21:24;;;;;;;7.45;3.78;;;;;;;;;;699657;28;1190;-70
2023/11/11 01:21:46;;;;;;;7.82;3.65;;;;;;;;;;697591;28;1232;-69
2023/11/11 01:22:09;;;;;;;7.68;3.72;;;;;;;;;;695284;28;4410;-70
2023/11/11 01:22:29;;;;;;;7.82;3.90;;;;;;;;;;697577;28;1379;-70
2023/11/11 01:22:50;;;;;;;8.07;3.97;;;;;;;;;;696731;28;1115;-69
2023/11/11 01:23:10;;;;;;;8.00;4.35;;;;;;;;;;694249;28;1778;-69
2023/11/11 01:23:33;;;;;;;7.47;4.00;;;;;;;;;;696802;28;911;-70
2023/11/11 01:23:53;;;;;;;6.95;3.83;;;;;;;;;;695543;28;844;-69
2023/11/11 01:24:13;;;;;;;6.82;3.85;;;;;;;;;;692468;28;2146;-70
2023/11/11 01:24:33;;;;;;;7.97;4.00;;;;;;;;;;691738;28;1259;-69
2023/11/11 01:24:54;;;;;;;8.20;4.93;;;;;;;;;;692233;28;1191;-69
2023/11/11 01:25:14;;;;;;;7.38;4.22;;;;;;;;;;687254;28;4496;-70
2023/11/11 01:25:35;;;;;;;7.73;4.17;;;;;;;;;;692759;28;1346;-69
2023/11/11 01:25:55;;;;;;;7.45;4.38;;;;;;;;;;692440;28;1333;-69
2023/11/11 01:26:16;;;;;;;7.97;4.30;;;;;;;;;;691590;28;2388;-69
2023/11/11 01:26:36;;;;;;;7.68;4.22;;;;;;;;;;692521;28;1169;-69
2023/11/11 01:26:57;;;;;;;7.30;3.90;;;;;;;;;;694253;28;1063;-69
2023/11/11 01:27:17;;;;;;;8.70;4.03;;;;;;;;;;694398;28;1886;-70
2023/11/11 01:27:38;;;;;;;6.97;4.00;;;;;;;;;;694672;28;1430;-70
2023/11/11 01:27:58;;;;;;;8.23;4.05;;;;;;;;;;694692;28;1356;-69
2023/11/11 01:28:18;;;;;;;8.85;4.20;;;;;;;;;;693071;28;4253;-69
2023/11/11 01:28:39;;;;;;;7.77;4.10;;;;;;;;;;695332;28;1336;-69
2023/11/11 01:28:59;;;;;;;8.77;4.30;;;;;;;;;;697316;28;896;-69
2023/11/11 01:29:21;;;;;;;8.73;4.20;;;;;;;;;;696429;28;1476;-69
2023/11/11 01:29:42;;;;;;;8.13;4.63;;;;;;;;;;698788;28;1269;-69
2023/11/11 01:30:02;;;;;;;8.33;5.10;;;;;;;;;;700520;28;1195;-70
2023/11/11 01:30:23;;;;;;;9.77;5.50;;;;;;;;;;698453;28;1962;-69
2023/11/11 01:30:44;;;;;;;11.07;6.38;;;;;;;;;;697143;28;896;-70
2023/11/11 01:31:05;;;;;;;10.98;6.03;;;;;;;;;;696155;28;4278;-69
2023/11/11 01:31:25;;;;;;;12.95;6.65;;;;;;;;;;694267;28;1179;-69
2023/11/11 01:31:45;;;;;;;27.33;14.57;;;;;;;;;;696780;28;888;-69
2023/11/11 01:32:06;;;;;;;44.77;24.37;;;;;;;;;;695283;28;1903;-69
2023/11/11 01:32:26;;;;;;;48.43;27.30;;;;;;;;;;700435;28;838;-69
2023/11/11 01:32:46;;;;;;;47.23;26.97;;;;;;;;;;700884;28;1158;-70
2023/11/11 01:33:07;;;;;;;34.72;20.33;;;;;;;;;;700304;28;1762;-69
2023/11/11 01:33:27;;;;;;;23.27;13.73;;;;;;;;;;703431;28;1228;-69
2023/11/11 01:33:48;;;;;;;25.10;14.05;;;;;;;;;;699399;28;1759;-69
2023/11/11 01:34:08;;;;;;;19.65;11.45;;;;;;;;;;697082;28;4274;-69
2023/11/11 01:34:29;;;;;;;12.93;7.33;;;;;;;;;;698862;28;888;-69
2023/11/11 01:34:49;;;;;;;12.27;6.97;;;;;;;;;;696635;28;1337;-69
2023/11/11 01:35:10;;;;;;;12.23;6.68;;;;;;;;;;697623;28;1886;-70
2023/11/11 01:35:30;;;;;;;11.40;6.45;;;;;;;;;;700796;28;911;-69
2023/11/11 01:35:51;;;;;;;10.13;6.13;;;;;;;;;;699247;28;915;-69
2023/11/11 01:36:11;;;;;;;10.60;6.47;;;;;;;;;;696758;28;2134;-69
2023/11/11 01:36:31;;;;;;;10.55;6.45;;;;;;;;;;698186;28;1802;-69
2023/11/11 01:36:51;;;;;;;10.63;6.00;;;;;;;;;;701191;28;911;-70
2023/11/11 01:37:12;;;;;;;9.30;5.60;;;;;;;;;;701011;28;4264;-69
2023/11/11 01:37:32;;;;;;;9.15;5.43;;;;;;;;;;701008;28;1250;-70
2023/11/11 01:37:52;;;;;;;11.00;6.30;;;;;;;;;;697577;28;1413;-69
2023/11/11 01:38:13;;;;;;;14.47;8.10;;;;;;;;;;693377;28;1733;-69
2023/11/11 01:38:34;;;;;;;12.40;7.20;;;;;;;;;;695103;28;1297;-69
2023/11/11 01:38:54;;;;;;;9.68;5.93;;;;;;;;;;692661;28;1432;-69
2023/11/11 01:39:14;;;;;;;11.23;6.50;;;;;;;;;;691947;28;1836;-69
2023/11/11 01:39:35;;;;;;;11.40;6.80;;;;;;;;;;698718;28;1609;-69
2023/11/11 01:39:57;;;;;;;12.37;7.20;;;;;;;;;;697957;28;737;-70
2023/11/11 01:40:18;;;;;;;12.43;7.30;;;;;;;;;;700629;28;4237;-70
2023/11/11 01:40:39;;;;;;;11.93;6.80;;;;;;;;;;704062;28;852;-69
2023/11/11 01:41:03;;;;;;;11.05;6.43;;;;;;;;;;698744;28;1290;-69
2023/11/11 01:41:23;;;;;;;10.48;6.10;;;;;;;;;;697792;28;2397;-70
2023/11/11 01:41:43;;;;;;;10.37;6.67;;;;;;;;;;699501;28;928;-69
2023/11/11 01:42:05;;;;;;;10.33;7.17;;;;;;;;;;695785;28;911;-70
2023/11/11 01:42:25;;;;;;;10.57;6.75;;;;;;;;;;696149;28;5742;-69
2023/11/11 01:42:45;;;;;;;10.98;6.55;;;;;;;;;;697209;28;1141;-69
2023/11/11 01:43:12;;;;;;;11.10;7.13;;;;;;;;;;694939;28;4332;-69
2023/11/11 01:43:32;;;;;;;11.10;6.82;;;;;;;;;;697432;28;797;-69
2023/11/11 01:43:53;;;;;;;10.93;6.60;;;;;;;;;;700205;28;828;-70
2023/11/11 01:44:13;;;;;;;10.88;6.90;;;;;;;;;;700601;28;1018;-69
2023/11/11 01:44:33;;;;;;;11.93;7.40;;;;;;;;;;700751;28;885;-69
2023/11/11 01:44:55;;;;;;;13.64;7.70;;;;;;;;;;699066;28;1271;-69
2023/11/11 01:45:15;;;;;;;11.07;7.60;;;;;;;;;;697438;28;2331;-69
2023/11/11 01:45:36;;;;;;;11.40;7.70;;;;;;;;;;699645;28;888;-70
2023/11/11 01:45:59;;;;;;;11.30;7.20;;;;;;;;;;701117;28;855;-69
2023/11/11 01:46:19;;;;;;;11.88;7.90;;;;;;;;;;697837;28;4396;-70
2023/11/11 01:46:40;;;;;;;12.20;8.03;;;;;;;;;;699476;28;1143;-69
2023/11/11 01:47:03;;;;;;;13.82;9.88;;;;;;;;;;700864;28;899;-69
2023/11/11 01:47:23;;;;;;;15.63;11.00;;;;;;;;;;698446;28;1526;-69
2023/11/11 01:47:43;;;;;;;17.30;11.57;;;;;;;;;;701093;28;776;-70
2023/11/11 01:48:07;;;;;;;15.97;10.83;;;;;;;;;;701298;28;1105;-70
2023/11/11 01:48:30;;;;;;;15.48;10.13;;;;;;;;;;702176;28;2135;-69
2023/11/11 01:48:51;;;;;;;14.93;9.63;;;;;;;;;;704076;28;890;-69
2023/11/11 01:49:11;;;;;;;13.10;9.30;;;;;;;;;;701078;28;4384;-69
2023/11/11 01:49:31;;;;;;;12.63;8.60;;;;;;;;;;699243;28;1366;-69
2023/11/11 01:49:51;;;;;;;14.43;8.97;;;;;;;;;;699559;28;911;-68
2023/11/11 01:50:12;;;;;;;14.07;9.20;;;;;;;;;;699681;28;2315;-69
2023/11/11 01:50:33;;;;;;;15.00;9.37;;;;;;;;;;696334;28;1906;-69
2023/11/11 01:50:54;;;;;;;12.43;8.50;;;;;;;;;;696947;28;955;-69
2023/11/11 01:51:15;;;;;;;12.98;9.10;;;;;;;;;;696657;28;2516;-69
2023/11/11 01:51:36;;;;;;;11.47;8.70;;;;;;;;;;699570;28;804;-69
2023/11/11 01:51:57;;;;;;;11.80;8.07;;;;;;;;;;700105;28;878;-70
2023/11/11 01:52:17;;;;;;;12.10;8.23;;;;;;;;;;698937;28;4516;-69
2023/11/11 01:52:38;;;;;;;13.02;8.90;;;;;;;;;;704505;27;963;-69
2023/11/11 01:52:58;;;;;;;12.32;8.65;;;;;;;;;;701977;28;868;-69
2023/11/11 01:53:19;;;;;;;13.43;8.87;;;;;;;;;;702161;28;1826;-69
2023/11/11 01:53:40;;;;;;;13.68;8.70;;;;;;;;;;701888;28;904;-69
2023/11/11 01:54:00;;;;;;;13.80;8.30;;;;;;;;;;700931;28;1298;-68
2023/11/11 01:54:22;;;;;;;13.57;8.07;;;;;;;;;;699953;28;2317;-69
2023/11/11 01:54:43;;;;;;;13.13;8.63;;;;;;;;;;698269;28;1353;-70
2023/11/11 01:55:04;;;;;;;14.65;8.82;;;;;;;;;;698136;28;1268;-69
2023/11/11 01:55:24;;;;;;;14.43;9.32;;;;;;;;;;694740;28;5805;-69
2023/11/11 01:55:45;;;;;;;13.37;9.53;;;;;;;;;;693919;28;1234;-69
2023/11/11 01:56:08;;;;;;;14.25;9.35;;;;;;;;;;692171;28;1297;-69
2023/11/11 01:56:29;;;;;;;14.52;9.75;;;;;;;;;;692309;28;1204;-69
2023/11/11 01:56:50;;;;;;;14.40;9.27;;;;;;;;;;691993;28;1270;-69
2023/11/11 01:57:10;;;;;;;14.68;9.45;;;;;;;;;;690359;28;2201;-69
2023/11/11 01:57:31;;;;;;;15.95;10.38;;;;;;;;;;694667;28;971;-69
2023/11/11 01:57:51;;;;;;;15.00;9.93;;;;;;;;;;692301;28;864;-69
2023/11/11 01:58:12;;;;;;;14.40;9.82;;;;;;;;;;691009;28;4392;-68
2023/11/11 01:58:38;;;;;;;14.13;9.90;;;;;;;;;;697903;28;816;-69
2023/11/11 01:58:58;;;;;;;15.07;10.15;;;;;;;;;;696136;28;1417;-68
2023/11/11 01:59:19;;;;;;;15.13;10.03;;;;;;;;;;696541;28;1745;-69
2023/11/11 01:59:39;;;;;;;16.08;10.02;;;;;;;;;;699759;28;792;-70
2023/11/11 02:00:05;;;;;;;14.90;9.97;;;;;;;;;;698068;28;881;-69
2023/11/11 02:00:27;;;;;;;16.02;9.80;;;;;;;;;;681018;28;1269;-69
2023/11/11 02:00:50;;;;;;;15.95;10.20;;;;;;;;;;690222;28;1440;-69
2023/11/11 02:01:11;;;;;;;16.35;10.55;;;;;;;;;;687253;28;4391;-69
2023/11/11 02:01:31;;;;;;;15.48;10.98;;;;;;;;;;696777;28;1089;-69
2023/11/11 02:01:52;;;;;;;14.50;10.37;;;;;;;;;;697657;28;1392;-69
2023/11/11 02:02:12;;;;;;;15.70;10.30;;;;;;;;;;694128;28;3073;-70
2023/11/11 02:02:33;;;;;;;15.37;10.73;;;;;;;;;;698280;28;915;-69
2023/11/11 02:02:53;;;;;;;15.65;10.48;;;;;;;;;;701371;28;968;-69
2023/11/11 02:03:13;;;;;;;15.97;10.47;;;;;;;;;;700347;28;1469;-69
2023/11/11 02:03:35;;;;;;;15.88;10.55;;;;;;;;;;702151;28;872;-69
2023/11/11 02:03:55;;;;;;;15.77;10.38;;;;;;;;;;703460;28;1364;-69
2023/11/11 02:04:16;;;;;;;15.85;10.57;;;;;;;;;;703095;27;4316;-69
2023/11/11 02:04:36;;;;;;;14.67;10.27;;;;;;;;;;702455;28;1425;-69
2023/11/11 02:04:56;;;;;;;15.67;10.50;;;;;;;;;;700448;28;1256;-69
2023/11/11 02:05:17;;;;;;;15.07;10.52;;;;;;;;;;696594;28;1898;-69
2023/11/11 02:05:37;;;;;;;16.83;11.03;;;;;;;;;;697498;28;1284;-69
2023/11/11 02:05:57;;;;;;;17.15;11.00;;;;;;;;;;693630;28;1250;-69
2023/11/11 02:06:18;;;;;;;16.27;10.82;;;;;;;;;;692673;28;1442;-69
2023/11/11 02:06:40;;;;;;;16.30;11.15;;;;;;;;;;696104;28;921;-69
2023/11/11 02:07:00;;;;;;;16.63;10.93;;;;;;;;;;697808;28;884;-69
2023/11/11 02:07:21;;;;;;;16.20;10.70;;;;;;;;;;690728;28;4273;-69
2023/11/11 02:07:41;;;;;;;15.73;10.25;;;;;;;;;;696069;28;1355;-69
2023/11/11 02:08:04;;;;;;;15.20;10.13;;;;;;;;;;700546;28;988;-69
2023/11/11 02:08:29;;;;;;;16.23;10.65;;;;;;;;;;696641;28;2324;-69